createdAt,value
2018-01-16T00:02:23.507Z,3.07
2018-01-16T00:04:51.236Z,3.07
2018-01-16T00:07:18.919Z,3.06
2018-01-16T00:09:46.667Z,3.05
2018-01-16T00:12:14.347Z,3.03
2018-01-16T00:14:42.081Z,3.01
2018-01-16T00:17:09.770Z,3.07
2018-01-16T00:19:37.544Z,3.07
2018-01-16T00:22:05.250Z,3.06
2018-01-16T00:24:32.952Z,3.07
2018-01-16T00:27:00.635Z,3.14
2018-01-16T00:29:28.367Z,3.16
2018-01-16T00:31:56.055Z,3.18
2018-01-16T00:34:23.789Z,3.20
2018-01-16T00:36:51.483Z,3.22
2018-01-16T00:39:19.160Z,3.27
2018-01-16T00:41:46.840Z,3.29
2018-01-16T00:44:14.588Z,3.27
2018-01-16T00:46:42.315Z,3.26
2018-01-16T00:49:10.050Z,3.30
2018-01-16T00:51:37.725Z,3.31
2018-01-16T00:54:05.456Z,3.33
2018-01-16T00:56:33.087Z,3.34
2018-01-16T00:59:00.806Z,3.33
2018-01-16T01:01:28.421Z,3.32
2018-01-16T01:03:56.100Z,3.33
2018-01-16T01:06:23.731Z,3.32
2018-01-16T01:08:51.472Z,3.29
2018-01-16T01:11:19.105Z,3.27
2018-01-16T01:13:46.831Z,3.28
2018-01-16T01:16:14.518Z,3.33
2018-01-16T01:18:42.200Z,3.36
2018-01-16T01:21:09.871Z,3.35
2018-01-16T01:23:37.551Z,3.38
2018-01-16T01:26:05.219Z,3.37
2018-01-16T01:28:32.921Z,3.36
2018-01-16T01:31:00.599Z,3.38
2018-01-16T01:33:28.291Z,3.42
2018-01-16T01:35:55.966Z,3.45
2018-01-16T01:38:23.663Z,3.47
2018-01-16T01:40:51.395Z,3.49
2018-01-16T01:43:19.088Z,3.48
2018-01-16T01:45:46.837Z,3.44
2018-01-16T01:48:14.454Z,3.42
2018-01-16T01:50:42.190Z,3.43
2018-01-16T01:53:09.873Z,3.49
2018-01-16T01:55:37.548Z,3.52
2018-01-16T01:58:05.251Z,3.52
2018-01-16T02:00:32.988Z,3.52
2018-01-16T02:03:00.625Z,3.51
2018-01-16T02:05:28.368Z,3.52
2018-01-16T02:07:55.996Z,3.51
2018-01-16T02:10:23.727Z,3.54
2018-01-16T02:12:51.420Z,3.59
2018-01-16T02:15:19.146Z,3.62
2018-01-16T02:17:46.838Z,3.64
2018-01-16T02:20:14.505Z,3.67
2018-01-16T02:22:42.184Z,3.67
2018-01-16T02:25:09.908Z,3.68
2018-01-16T02:27:37.589Z,3.70
2018-01-16T02:30:05.316Z,3.69
2018-01-16T02:32:33.011Z,3.68
2018-01-16T02:35:00.750Z,3.66
2018-01-16T02:37:28.432Z,3.68
2018-01-16T02:39:56.100Z,3.67
2018-01-16T02:42:23.778Z,3.69
2018-01-16T02:44:51.479Z,3.70
2018-01-16T02:47:19.195Z,3.70
2018-01-16T02:49:46.942Z,3.72
2018-01-16T02:52:14.647Z,3.74
2018-01-16T02:54:42.407Z,3.73
2018-01-16T02:57:10.086Z,3.74
2018-01-16T02:59:37.766Z,3.74
2018-01-16T03:02:06.304Z,3.73
2018-01-16T03:04:33.989Z,3.75
2018-01-16T03:07:01.719Z,3.77
2018-01-16T03:09:29.347Z,3.81
2018-01-16T03:11:57.096Z,3.85
2018-01-16T03:14:24.796Z,3.85
2018-01-16T03:16:52.581Z,3.84
2018-01-16T03:19:20.295Z,3.84
2018-01-16T03:21:48.020Z,3.85
2018-01-16T03:24:15.660Z,3.85
2018-01-16T03:26:43.398Z,3.84
2018-01-16T03:29:11.078Z,3.82
2018-01-16T03:31:38.816Z,3.80
2018-01-16T03:34:06.467Z,3.80
2018-01-16T03:36:34.179Z,3.79
2018-01-16T03:39:01.855Z,3.77
2018-01-16T03:41:29.581Z,3.77
2018-01-16T03:43:57.256Z,3.77
2018-01-16T03:46:24.983Z,3.77
2018-01-16T03:48:52.673Z,3.75
2018-01-16T03:51:20.354Z,3.74
2018-01-16T03:53:48.047Z,3.74
2018-01-16T03:56:15.791Z,3.73
2018-01-16T03:58:43.476Z,3.75
2018-01-16T04:01:11.199Z,3.77
2018-01-16T04:03:38.886Z,3.79
2018-01-16T04:06:06.542Z,3.83
2018-01-16T04:08:34.231Z,3.84
2018-01-16T04:11:01.911Z,3.82
2018-01-16T04:13:29.584Z,3.80
2018-01-16T04:15:57.319Z,3.75
2018-01-16T04:18:25.007Z,3.71
2018-01-16T04:20:52.673Z,3.69
2018-01-16T04:23:20.286Z,3.67
2018-01-16T04:25:48.011Z,3.67
2018-01-16T04:28:15.702Z,3.67
2018-01-16T04:30:43.453Z,3.64
2018-01-16T04:33:11.139Z,3.62
2018-01-16T04:35:38.887Z,3.60
2018-01-16T04:38:06.511Z,3.60
2018-01-16T04:40:34.198Z,3.58
2018-01-16T04:43:01.943Z,3.60
2018-01-16T04:45:29.614Z,3.63
2018-01-16T04:47:57.336Z,3.64
2018-01-16T04:50:25.016Z,3.65
2018-01-16T04:52:52.743Z,3.64
2018-01-16T04:55:20.363Z,3.61
2018-01-16T04:57:48.096Z,3.55
2018-01-16T05:00:15.795Z,3.46
2018-01-16T05:02:43.463Z,3.38
2018-01-16T05:05:11.151Z,3.28
2018-01-16T05:07:38.884Z,3.22
2018-01-16T05:10:06.585Z,3.18
2018-01-16T05:12:34.312Z,3.17
2018-01-16T05:15:01.989Z,3.15
2018-01-16T05:17:29.730Z,3.13
2018-01-16T05:19:57.450Z,3.09
2018-01-16T05:22:25.172Z,3.09
2018-01-16T05:24:52.857Z,3.02
2018-01-16T05:27:20.576Z,2.96
2018-01-16T05:29:48.266Z,2.94
2018-01-16T05:32:15.997Z,3.01
2018-01-16T05:34:43.677Z,3.10
2018-01-16T05:37:11.417Z,3.15
2018-01-16T05:39:39.032Z,3.19
2018-01-16T05:42:06.771Z,3.23
2018-01-16T05:44:34.469Z,3.23
2018-01-16T05:47:02.229Z,3.20
2018-01-16T05:49:29.970Z,3.17
2018-01-16T05:51:57.747Z,3.10
2018-01-16T05:54:25.447Z,3.03
2018-01-16T05:56:53.224Z,2.93
2018-01-16T05:59:20.854Z,2.85
2018-01-16T06:01:48.551Z,2.76
2018-01-16T06:04:16.177Z,2.68
2018-01-16T06:06:43.852Z,2.59
2018-01-16T06:09:11.487Z,2.52
2018-01-16T06:11:39.164Z,2.50
2018-01-16T06:14:06.812Z,2.51
2018-01-16T06:16:34.499Z,2.55
2018-01-16T06:19:02.121Z,2.56
2018-01-16T06:21:29.767Z,2.58
2018-01-16T06:23:57.445Z,2.61
2018-01-16T06:26:25.076Z,2.57
2018-01-16T06:28:52.760Z,2.61
2018-01-16T06:31:20.380Z,2.66
2018-01-16T06:33:48.057Z,2.73
2018-01-16T06:36:15.681Z,2.76
2018-01-16T06:38:43.342Z,2.78
2018-01-16T06:41:10.959Z,2.74
2018-01-16T06:43:38.624Z,2.70
2018-01-16T06:46:06.249Z,2.63
2018-01-16T06:48:33.927Z,2.60
2018-01-16T06:51:01.600Z,2.56
2018-01-16T06:53:29.270Z,2.50
2018-01-16T06:55:56.903Z,2.50
2018-01-16T06:58:24.597Z,2.50
2018-01-16T07:00:52.274Z,2.53
2018-01-16T07:03:19.950Z,2.58
2018-01-16T07:05:47.644Z,2.66
2018-01-16T07:08:15.319Z,2.73
2018-01-16T07:13:15.268Z,2.88
2018-01-16T07:15:42.956Z,2.98
2018-01-16T07:18:10.708Z,3.06
2018-01-16T07:20:38.454Z,3.16
2018-01-16T07:23:06.208Z,3.26
2018-01-16T07:25:33.844Z,3.34
2018-01-16T07:28:01.588Z,3.37
2018-01-16T07:30:29.267Z,3.40
2018-01-16T07:32:57.014Z,3.43
2018-01-16T07:35:24.698Z,3.43
2018-01-16T07:37:52.381Z,3.42
2018-01-16T07:40:20.043Z,3.45
2018-01-16T07:42:47.736Z,3.44
2018-01-16T07:45:15.358Z,3.45
2018-01-16T07:47:46.593Z,3.48
2018-01-16T07:50:14.244Z,3.49
2018-01-16T07:52:41.932Z,3.51
2018-01-16T07:55:09.561Z,3.51
2018-01-16T07:57:37.303Z,3.53
2018-01-16T08:00:04.988Z,3.55
2018-01-16T08:02:32.622Z,3.56
2018-01-16T08:05:00.364Z,3.59
2018-01-16T08:07:28.074Z,3.63
2018-01-16T08:09:55.887Z,3.66
2018-01-16T08:12:23.524Z,3.68
2018-01-16T08:14:51.270Z,3.73
2018-01-16T08:17:18.995Z,3.77
2018-01-16T08:19:46.786Z,3.84
2018-01-16T08:22:14.461Z,3.87
2018-01-16T08:24:42.197Z,3.92
2018-01-16T08:27:09.900Z,3.98
2018-01-16T08:29:37.639Z,4.04
2018-01-16T08:32:05.326Z,4.05
2018-01-16T08:34:33.054Z,4.04
2018-01-16T08:37:00.729Z,4.06
2018-01-16T08:39:28.456Z,4.02
2018-01-16T08:41:56.123Z,4.02
2018-01-16T08:44:23.882Z,3.99
2018-01-16T08:46:51.572Z,3.99
2018-01-16T08:49:19.298Z,3.99
2018-01-16T08:51:47.028Z,4.01
2018-01-16T08:54:14.796Z,4.08
2018-01-16T08:56:42.882Z,4.14
2018-01-16T08:59:10.606Z,4.24
2018-01-16T09:01:38.318Z,4.28
2018-01-16T09:04:06.086Z,4.28
2018-01-16T09:06:33.783Z,4.31
2018-01-16T09:09:01.529Z,4.37
2018-01-16T09:11:29.223Z,4.51
2018-01-16T09:13:56.997Z,4.62
2018-01-16T09:16:24.709Z,4.67
2018-01-16T09:18:52.466Z,4.65
2018-01-16T09:21:20.208Z,4.70
2018-01-16T09:23:47.948Z,4.71
2018-01-16T09:26:15.633Z,4.69
2018-01-16T09:28:43.386Z,4.65
2018-01-16T09:31:11.065Z,4.63
2018-01-16T09:33:38.854Z,4.65
2018-01-16T09:36:06.493Z,4.70
2018-01-16T09:38:34.237Z,4.79
2018-01-16T09:41:01.923Z,4.90
2018-01-16T09:43:29.598Z,4.94
2018-01-16T09:45:57.332Z,4.83
2018-01-16T09:48:24.999Z,4.72
2018-01-16T09:50:52.763Z,4.69
2018-01-16T09:53:20.464Z,4.73
2018-01-16T09:55:48.205Z,4.77
2018-01-16T09:58:15.879Z,4.80
2018-01-16T10:00:43.624Z,4.82
2018-01-16T10:03:11.322Z,4.85
2018-01-16T10:05:39.015Z,4.84
2018-01-16T10:08:06.691Z,4.78
2018-01-16T10:10:34.430Z,4.75
2018-01-16T10:13:02.137Z,4.78
2018-01-16T10:15:29.861Z,4.88
2018-01-16T10:17:57.562Z,5.06
2018-01-16T10:20:25.363Z,5.16
2018-01-16T10:22:53.050Z,5.26
2018-01-16T10:25:20.787Z,5.26
2018-01-16T10:27:48.482Z,5.20
2018-01-16T10:30:16.214Z,5.15
2018-01-16T10:32:43.911Z,5.07
2018-01-16T10:35:11.638Z,4.98
2018-01-16T10:37:39.349Z,4.95
2018-01-16T10:40:07.125Z,4.87
2018-01-16T10:42:34.824Z,4.87
2018-01-16T10:45:02.561Z,4.95
2018-01-16T10:47:30.256Z,5.10
2018-01-16T10:49:58.007Z,5.27
2018-01-16T10:52:25.692Z,5.35
2018-01-16T10:54:53.409Z,5.41
2018-01-16T10:57:21.103Z,5.42
2018-01-16T10:59:48.862Z,5.46
2018-01-16T11:02:16.551Z,5.51
2018-01-16T11:04:44.294Z,5.47
2018-01-16T11:07:11.993Z,5.44
2018-01-16T11:09:39.728Z,5.41
2018-01-16T11:12:07.410Z,5.40
2018-01-16T11:14:35.136Z,5.33
2018-01-16T11:17:02.824Z,5.36
2018-01-16T11:19:30.597Z,5.43
2018-01-16T11:21:58.279Z,5.54
2018-01-16T11:24:25.995Z,5.63
2018-01-16T11:26:53.790Z,5.66
2018-01-16T11:29:21.496Z,5.55
2018-01-16T11:31:49.223Z,5.38
2018-01-16T11:34:17.011Z,5.24
2018-01-16T11:36:44.777Z,5.11
2018-01-16T11:39:12.474Z,5.00
2018-01-16T11:41:40.218Z,4.91
2018-01-16T11:44:07.905Z,4.85
2018-01-16T11:46:35.651Z,4.80
2018-01-16T11:49:03.348Z,4.79
2018-01-16T11:51:31.111Z,4.75
2018-01-16T11:53:58.796Z,4.74
2018-01-16T11:56:26.529Z,4.72
2018-01-16T11:58:54.223Z,4.73
2018-01-16T12:01:21.987Z,4.76
2018-01-16T12:03:49.766Z,4.74
2018-01-16T12:06:17.518Z,4.69
2018-01-16T12:08:45.271Z,4.65
2018-01-16T12:11:12.979Z,4.58
2018-01-16T12:13:40.723Z,4.50
2018-01-16T12:16:08.421Z,4.46
2018-01-16T12:18:36.109Z,4.44
2018-01-16T12:21:03.890Z,4.47
2018-01-16T12:23:31.607Z,4.52
2018-01-16T12:25:59.339Z,4.62
2018-01-16T12:28:27.026Z,4.75
2018-01-16T12:30:54.695Z,4.86
2018-01-16T12:33:22.381Z,4.95
2018-01-16T12:35:50.141Z,5.03
2018-01-16T12:38:17.943Z,5.07
2018-01-16T12:40:45.597Z,5.06
2018-01-16T12:43:13.310Z,5.08
2018-01-16T12:45:40.992Z,5.06
2018-01-16T12:48:08.662Z,5.07
2018-01-16T12:50:36.351Z,5.11
2018-01-16T12:53:03.971Z,5.10
2018-01-16T12:55:31.688Z,5.13
2018-01-16T12:57:59.394Z,5.15
2018-01-16T13:00:27.136Z,5.20
2018-01-16T13:02:54.828Z,5.14
2018-01-16T13:05:22.552Z,5.12
2018-01-16T13:07:50.284Z,5.12
2018-01-16T13:10:18.073Z,5.11
2018-01-16T13:12:45.760Z,5.08
2018-01-16T13:15:13.586Z,5.03
2018-01-16T13:17:41.270Z,4.98
2018-01-16T13:20:09.007Z,4.94
2018-01-16T13:22:36.624Z,4.91
2018-01-16T13:25:04.282Z,4.85
2018-01-16T13:27:31.963Z,4.83
2018-01-16T13:29:59.708Z,4.80
2018-01-16T13:32:27.402Z,4.82
2018-01-16T13:34:55.140Z,4.82
2018-01-16T13:37:22.836Z,4.82
2018-01-16T13:39:50.518Z,4.85
2018-01-16T13:42:18.160Z,4.90
2018-01-16T13:44:45.887Z,4.96
2018-01-16T13:47:13.643Z,4.99
2018-01-16T13:49:41.448Z,4.97
2018-01-16T13:52:09.187Z,4.92
2018-01-16T13:54:36.890Z,4.86
2018-01-16T13:57:04.686Z,4.81
2018-01-16T13:59:32.385Z,4.78
2018-01-16T14:02:00.152Z,4.73
2018-01-16T14:04:27.866Z,4.70
2018-01-16T14:06:55.642Z,4.70
2018-01-16T14:09:23.318Z,4.69
2018-01-16T14:11:51.093Z,4.69
2018-01-16T14:14:18.711Z,4.70
2018-01-16T14:16:46.400Z,4.68
2018-01-16T14:19:14.019Z,4.67
2018-01-16T14:21:41.713Z,4.67
2018-01-16T14:24:09.347Z,4.68
2018-01-16T14:26:37.015Z,4.63
2018-01-16T14:29:04.622Z,4.59
2018-01-16T14:31:32.313Z,4.57
2018-01-16T14:33:59.980Z,4.53
2018-01-16T14:36:27.641Z,4.51
2018-01-16T14:38:55.332Z,4.50
2018-01-16T14:41:22.999Z,4.49
2018-01-16T14:43:50.804Z,4.48
2018-01-16T14:46:18.480Z,4.44
2018-01-16T14:48:46.092Z,4.42
2018-01-16T14:51:13.774Z,4.39
2018-01-16T14:53:41.398Z,4.36
2018-01-16T14:56:09.083Z,4.33
2018-01-16T14:58:36.714Z,4.30
2018-01-16T15:01:04.393Z,4.27
2018-01-16T15:03:32.030Z,4.24
2018-01-16T15:05:59.717Z,4.25
2018-01-16T15:08:27.369Z,4.21
2018-01-16T15:10:55.068Z,4.15
2018-01-16T15:13:22.712Z,4.01
2018-01-16T15:15:50.471Z,3.90
2018-01-16T15:18:18.097Z,3.84
2018-01-16T15:20:45.821Z,3.78
2018-01-16T15:23:13.443Z,3.71
2018-01-16T15:25:41.058Z,3.62
2018-01-16T15:28:08.747Z,3.56
2018-01-16T15:30:36.388Z,3.50
2018-01-16T15:33:04.068Z,3.43
2018-01-16T15:35:31.697Z,3.34
2018-01-16T15:37:59.463Z,3.20
2018-01-16T15:40:27.079Z,3.00
2018-01-16T15:42:54.782Z,2.85
2018-01-16T15:45:22.478Z,2.82
2018-01-16T15:47:50.212Z,2.74
2018-01-16T15:50:17.907Z,2.76
2018-01-16T15:52:45.575Z,2.75
2018-01-16T15:55:13.273Z,2.70
2018-01-16T15:57:40.967Z,2.66
2018-01-16T16:00:08.590Z,2.60
2018-01-16T16:02:36.310Z,2.57
2018-01-16T16:05:04.037Z,2.55
2018-01-16T16:07:31.708Z,2.48
2018-01-16T16:09:59.348Z,2.42
2018-01-16T16:12:27.008Z,2.32
2018-01-16T16:14:54.631Z,2.19
2018-01-16T16:17:22.333Z,2.16
2018-01-16T16:19:50.001Z,2.13
2018-01-16T16:22:17.746Z,2.09
2018-01-16T16:24:45.403Z,2.16
2018-01-16T16:27:13.099Z,2.15
2018-01-16T16:29:40.817Z,2.14
2018-01-16T16:32:08.558Z,2.10
2018-01-16T16:34:36.227Z,2.08
2018-01-16T16:37:03.900Z,2.04
2018-01-16T16:39:31.587Z,1.98
2018-01-16T16:41:59.264Z,1.92
2018-01-16T16:44:26.894Z,1.89
2018-01-16T16:46:54.577Z,1.86
2018-01-16T16:49:22.264Z,1.82
2018-01-16T16:51:49.938Z,1.84
2018-01-16T16:54:17.642Z,1.90
2018-01-16T16:56:45.436Z,1.92
2018-01-16T16:59:13.137Z,1.93
2018-01-16T17:01:40.923Z,1.93
2018-01-16T17:04:08.602Z,1.98
2018-01-16T17:06:36.332Z,2.03
2018-01-16T17:09:04.091Z,2.07
2018-01-16T17:11:31.778Z,2.10
2018-01-16T17:13:59.509Z,2.07
2018-01-16T17:16:27.140Z,2.09
2018-01-16T17:18:54.805Z,2.13
2018-01-16T17:21:22.506Z,2.16
2018-01-16T17:23:50.170Z,2.18
2018-01-16T17:26:17.868Z,2.24
2018-01-16T17:28:45.530Z,2.25
2018-01-16T17:31:13.172Z,2.27
2018-01-16T17:33:40.853Z,2.30
2018-01-16T17:36:08.526Z,2.31
2018-01-16T17:38:36.224Z,2.31
2018-01-16T17:41:03.843Z,2.34
2018-01-16T17:43:31.499Z,2.39
2018-01-16T17:45:59.133Z,2.45
2018-01-16T17:48:26.813Z,2.42
2018-01-16T17:50:54.480Z,2.45
2018-01-16T17:53:22.158Z,2.45
2018-01-16T17:55:49.785Z,2.47
2018-01-16T17:58:17.549Z,2.51
2018-01-16T18:00:45.156Z,2.60
2018-01-16T18:03:12.907Z,2.61
2018-01-16T18:05:40.599Z,2.62
2018-01-16T18:08:08.926Z,2.64
2018-01-16T18:10:36.599Z,2.63
2018-01-16T18:13:04.359Z,2.64
2018-01-16T18:15:31.990Z,2.65
2018-01-16T18:17:59.657Z,2.65
2018-01-16T18:20:27.306Z,2.71
2018-01-16T18:22:55.014Z,2.75
2018-01-16T18:25:22.694Z,2.75
2018-01-16T18:27:50.424Z,2.73
2018-01-16T18:30:18.045Z,2.73
2018-01-16T18:32:45.735Z,2.73
2018-01-16T18:35:13.356Z,2.71
2018-01-16T18:37:41.128Z,2.68
2018-01-16T18:40:08.831Z,2.64
2018-01-16T18:42:36.468Z,2.58
2018-01-16T18:45:04.238Z,2.56
2018-01-16T18:47:31.914Z,2.59
2018-01-16T18:49:59.743Z,2.56
2018-01-16T18:52:27.439Z,2.53
2018-01-16T18:54:55.333Z,2.49
2018-01-16T18:57:22.951Z,2.47
2018-01-16T18:59:50.667Z,2.44
2018-01-16T19:02:18.308Z,2.45
2018-01-16T19:04:45.977Z,2.44
2018-01-16T19:07:13.595Z,2.43
2018-01-16T19:09:41.262Z,2.42
2018-01-16T19:12:08.949Z,2.41
2018-01-16T19:14:36.630Z,2.40
2018-01-16T19:17:04.279Z,2.39
2018-01-16T19:19:31.948Z,2.41
2018-01-16T19:21:59.585Z,2.39
2018-01-16T19:24:27.271Z,2.38
2018-01-16T19:26:54.894Z,2.41
2018-01-16T19:29:22.644Z,2.43
2018-01-16T19:31:50.283Z,2.42
2018-01-16T19:34:17.978Z,2.45
2018-01-16T19:36:45.624Z,2.45
2018-01-16T19:39:13.293Z,2.47
2018-01-16T19:41:40.928Z,2.50
2018-01-16T19:44:08.626Z,2.49
2018-01-16T19:46:36.247Z,2.49
2018-01-16T19:49:03.961Z,2.49
2018-01-16T19:51:31.610Z,2.50
2018-01-16T19:53:59.292Z,2.53
2018-01-16T19:56:26.921Z,2.52
2018-01-16T19:58:54.666Z,2.50
2018-01-16T20:01:22.323Z,2.50
2018-01-16T20:03:50.048Z,2.53
2018-01-16T20:06:17.724Z,2.51
2018-01-16T20:08:45.497Z,2.50
2018-01-16T20:11:13.210Z,2.43
2018-01-16T20:13:40.920Z,2.45
2018-01-16T20:16:08.642Z,2.47
2018-01-16T20:18:36.411Z,2.46
2018-01-16T20:21:04.076Z,2.48
2018-01-16T20:23:31.826Z,2.47
2018-01-16T20:25:59.508Z,2.48
2018-01-16T20:28:27.218Z,2.45
2018-01-16T20:30:55.864Z,2.43
2018-01-16T20:33:23.608Z,2.42
2018-01-16T20:35:51.273Z,2.39
2018-01-16T20:38:19.030Z,2.38
2018-01-16T20:40:46.686Z,2.40
2018-01-16T20:43:14.432Z,2.36
2018-01-16T20:45:42.105Z,2.36
2018-01-16T20:48:09.802Z,2.36
2018-01-16T20:50:37.535Z,2.35
2018-01-16T20:53:05.236Z,2.35
2018-01-16T20:55:33.029Z,2.25
2018-01-16T20:58:00.744Z,2.16
2018-01-16T21:00:28.480Z,2.11
2018-01-16T21:02:56.219Z,2.12
2018-01-16T21:05:23.953Z,2.14
2018-01-16T21:07:51.680Z,2.21
2018-01-16T21:10:19.404Z,2.22
2018-01-16T21:12:47.146Z,2.22
2018-01-16T21:15:14.855Z,2.22
2018-01-16T21:17:42.548Z,2.19
2018-01-16T21:20:10.274Z,2.20
2018-01-16T21:22:37.901Z,2.17
2018-01-16T21:25:05.699Z,2.16
2018-01-16T21:27:33.448Z,2.16
2018-01-16T21:30:01.234Z,2.14
2018-01-16T21:32:28.921Z,2.08
2018-01-16T21:34:56.712Z,2.05
2018-01-16T21:37:24.328Z,2.04
2018-01-16T21:39:52.107Z,2.04
2018-01-16T21:42:19.783Z,2.01
2018-01-16T21:44:47.508Z,2.02
2018-01-16T21:47:15.192Z,2.04
2018-01-16T21:49:42.914Z,2.07
2018-01-16T21:52:10.558Z,2.10
2018-01-16T21:54:38.230Z,2.14
2018-01-16T21:57:05.979Z,2.18
2018-01-16T21:59:33.669Z,2.18
2018-01-16T22:02:01.417Z,2.18
2018-01-16T22:04:29.125Z,2.19
2018-01-16T22:06:56.978Z,2.19
2018-01-16T22:09:24.660Z,2.18
2018-01-16T22:11:52.352Z,2.19
2018-01-16T22:14:20.019Z,2.23
2018-01-16T22:16:47.710Z,2.23
2018-01-16T22:19:15.350Z,2.26
2018-01-16T22:21:43.015Z,2.25
2018-01-16T22:24:10.716Z,2.27
2018-01-16T22:26:38.393Z,2.26
2018-01-16T22:29:06.082Z,2.27
2018-01-16T22:31:33.846Z,2.25
2018-01-16T22:34:01.566Z,2.23
2018-01-16T22:36:29.337Z,2.22
2018-01-16T22:38:57.044Z,2.24
2018-01-16T22:41:24.757Z,2.21
2018-01-16T22:43:52.377Z,2.23
2018-01-16T22:46:20.098Z,2.24
2018-01-16T22:48:47.722Z,2.25
2018-01-16T22:51:15.402Z,2.24
2018-01-16T22:53:43.097Z,2.23
2018-01-16T22:56:10.765Z,2.17
2018-01-16T22:58:38.392Z,2.12
2018-01-16T23:01:06.067Z,2.09
2018-01-16T23:03:33.692Z,2.08
2018-01-16T23:06:01.488Z,2.09
2018-01-16T23:08:29.119Z,2.12
2018-01-16T23:10:56.795Z,2.16
2018-01-16T23:13:24.488Z,2.18
2018-01-16T23:15:52.221Z,2.22
2018-01-16T23:18:19.850Z,2.23
2018-01-16T23:20:47.504Z,2.20
2018-01-16T23:23:15.128Z,2.20
2018-01-16T23:25:42.791Z,2.18
2018-01-16T23:28:10.417Z,2.16
2018-01-16T23:30:38.092Z,2.16
2018-01-16T23:33:05.720Z,2.16
2018-01-16T23:35:33.455Z,2.15
2018-01-16T23:38:01.087Z,2.15
2018-01-16T23:40:28.752Z,2.16
2018-01-16T23:42:56.377Z,2.17
2018-01-16T23:45:24.068Z,2.18
2018-01-16T23:47:51.736Z,2.19
2018-01-16T23:50:19.424Z,2.18
2018-01-16T23:52:47.081Z,2.16
2018-01-16T23:55:14.703Z,2.16
2018-01-16T23:57:42.455Z,2.19
